Time;durP1;ratioP1;P1;durP2;ratioP2;P2;SDS_P1;SDS_P2;PMS_P1;PMS_P2;Temp;Humidity;BMP_temperature;BMP_pressure;BME280_temperature;BME280_humidity;BME280_pressure;Samples;Min_cycle;Max_cycle;Signal;HPM_P1;HPM_P2
2023/05/14 00:01:21;;;;;;;13.90;11.57;;;;;;;;;;5062514;28;20421;-61
2023/05/14 00:03:48;;;;;;;16.00;11.82;;;;;;;;;;5064092;28;20460;-60
2023/05/14 00:06:15;;;;;;;13.73;10.73;;;;;;;;;;5065661;28;20473;-60
2023/05/14 00:08:42;;;;;;;13.05;11.65;;;;;;;;;;5067768;28;20427;-59
2023/05/14 00:11:11;;;;;;;13.02;10.90;;;;;;;;;;5063871;28;20842;-61
2023/05/14 00:13:37;;;;;;;12.27;10.48;;;;;;;;;;5063576;28;20413;-60
2023/05/14 00:16:05;;;;;;;11.95;10.70;;;;;;;;;;5063354;28;20461;-61
2023/05/14 00:18:32;;;;;;;12.30;11.07;;;;;;;;;;5064636;28;20780;-60
2023/05/14 00:20:59;;;;;;;13.30;11.07;;;;;;;;;;5064453;28;20419;-59
2023/05/14 00:23:26;;;;;;;13.98;11.10;;;;;;;;;;5064280;28;20834;-61
2023/05/14 00:25:53;;;;;;;13.25;11.20;;;;;;;;;;5065623;28;20425;-62
2023/05/14 00:28:21;;;;;;;13.70;11.50;;;;;;;;;;5062937;28;20916;-62
2023/05/14 00:30:48;;;;;;;12.32;10.70;;;;;;;;;;5065147;28;20424;-57
2023/05/14 00:33:15;;;;;;;12.65;11.10;;;;;;;;;;5063622;28;20463;-60
2023/05/14 00:35:42;;;;;;;12.85;11.18;;;;;;;;;;5065636;28;20480;-61
2023/05/14 00:38:15;;;;;;;13.25;11.85;;;;;;;;;;5066343;28;20407;-61
2023/05/14 00:40:44;;;;;;;15.60;11.90;;;;;;;;;;5061604;28;20504;-61
2023/05/14 00:43:11;;;;;;;13.38;11.38;;;;;;;;;;5063785;28;20420;-61
2023/05/14 00:45:40;;;;;;;12.23;10.93;;;;;;;;;;5064079;28;20420;-61
2023/05/14 00:48:07;;;;;;;13.93;10.98;;;;;;;;;;5052586;28;20901;-61
2023/05/14 00:50:34;;;;;;;13.75;11.13;;;;;;;;;;5052486;28;20417;-61
2023/05/14 00:53:01;;;;;;;13.10;11.70;;;;;;;;;;5053043;28;20420;-61
2023/05/14 00:55:30;;;;;;;13.82;11.90;;;;;;;;;;5060931;28;20826;-61
2023/05/14 00:57:58;;;;;;;14.90;12.82;;;;;;;;;;5063854;28;20946;-61
2023/05/14 01:00:25;;;;;;;13.80;11.75;;;;;;;;;;5061265;28;20475;-60
2023/05/14 01:02:53;;;;;;;13.93;11.80;;;;;;;;;;5063749;28;20473;-58
2023/05/14 01:05:20;;;;;;;12.90;11.60;;;;;;;;;;5060791;28;20842;-61
2023/05/14 01:07:51;;;;;;;13.73;11.88;;;;;;;;;;5065711;28;20479;-60
2023/05/14 01:10:21;;;;;;;14.70;12.32;;;;;;;;;;5060068;28;20416;-59
2023/05/14 01:12:53;;;;;;;15.95;12.93;;;;;;;;;;5064873;28;20469;-60
2023/05/14 01:15:21;;;;;;;14.20;12.68;;;;;;;;;;5060612;28;20416;-61
2023/05/14 01:17:50;;;;;;;14.38;12.18;;;;;;;;;;5062905;28;20485;-60
2023/05/14 01:20:19;;;;;;;16.15;12.60;;;;;;;;;;5051919;28;20535;-58
2023/05/14 01:22:47;;;;;;;15.98;13.25;;;;;;;;;;5052308;28;20416;-61
2023/05/14 01:25:14;;;;;;;14.52;13.02;;;;;;;;;;5061370;28;20420;-59
2023/05/14 01:27:46;;;;;;;15.88;12.95;;;;;;;;;;5062124;28;20464;-60
2023/05/14 01:30:19;;;;;;;15.95;12.88;;;;;;;;;;5060536;28;20448;-60
2023/05/14 01:32:49;;;;;;;15.73;13.18;;;;;;;;;;5063062;28;20473;-61
2023/05/14 01:35:16;;;;;;;17.58;13.30;;;;;;;;;;5061002;28;20463;-61
2023/05/14 01:37:44;;;;;;;15.73;14.02;;;;;;;;;;5066303;28;20463;-60
2023/05/14 01:40:13;;;;;;;17.27;15.27;;;;;;;;;;5062800;28;20473;-59
2023/05/14 01:42:40;;;;;;;16.08;14.38;;;;;;;;;;5062533;28;20434;-61
2023/05/14 01:45:08;;;;;;;18.30;15.65;;;;;;;;;;5064158;28;20416;-59
2023/05/14 01:47:35;;;;;;;17.40;15.15;;;;;;;;;;5061400;28;20785;-60
2023/05/14 01:50:02;;;;;;;22.27;18.30;;;;;;;;;;5059631;28;20467;-61
2023/05/14 01:52:29;;;;;;;21.45;18.45;;;;;;;;;;5060445;28;20915;-60
2023/05/14 01:54:57;;;;;;;19.60;17.60;;;;;;;;;;5061525;28;20425;-61
2023/05/14 01:57:25;;;;;;;23.60;17.25;;;;;;;;;;5062402;28;21181;-61
2023/05/14 01:59:52;;;;;;;20.52;16.90;;;;;;;;;;5061910;28;20486;-61
2023/05/14 02:02:19;;;;;;;20.55;17.52;;;;;;;;;;5060316;28;20417;-61
2023/05/14 02:04:46;;;;;;;19.48;17.25;;;;;;;;;;5062396;28;20457;-61
2023/05/14 02:07:13;;;;;;;20.05;17.60;;;;;;;;;;5062932;28;20415;-60
2023/05/14 02:09:40;;;;;;;18.55;16.67;;;;;;;;;;5063588;28;20699;-60
2023/05/14 02:12:08;;;;;;;19.63;17.33;;;;;;;;;;5061014;28;20780;-61
2023/05/14 02:14:36;;;;;;;19.88;16.73;;;;;;;;;;5061452;28;20474;-61
2023/05/14 02:17:03;;;;;;;18.60;16.70;;;;;;;;;;5061251;28;20964;-61
2023/05/14 02:19:30;;;;;;;19.55;16.90;;;;;;;;;;5062331;28;20411;-60
2023/05/14 02:21:59;;;;;;;18.20;16.30;;;;;;;;;;5060870;28;20415;-61
2023/05/14 02:24:26;;;;;;;19.67;16.50;;;;;;;;;;5061963;28;20492;-60
2023/05/14 02:26:53;;;;;;;22.67;20.30;;;;;;;;;;5051220;28;20412;-61
2023/05/14 02:29:20;;;;;;;20.00;17.80;;;;;;;;;;5055053;28;20832;-60
2023/05/14 02:31:49;;;;;;;20.00;17.90;;;;;;;;;;5062121;28;20411;-61
2023/05/14 02:34:16;;;;;;;21.73;19.25;;;;;;;;;;5060686;28;20463;-61
2023/05/14 02:36:43;;;;;;;22.60;18.13;;;;;;;;;;5063646;28;20476;-61
2023/05/14 02:39:10;;;;;;;21.63;19.33;;;;;;;;;;5064708;28;20469;-61
2023/05/14 02:41:37;;;;;;;21.90;19.45;;;;;;;;;;5061081;28;20422;-61
2023/05/14 02:44:04;;;;;;;23.23;20.73;;;;;;;;;;5059236;28;20473;-61
2023/05/14 02:46:31;;;;;;;23.33;20.77;;;;;;;;;;5061971;28;20822;-61
2023/05/14 02:48:59;;;;;;;23.65;20.17;;;;;;;;;;5062043;28;20450;-62
2023/05/14 02:51:26;;;;;;;22.90;18.67;;;;;;;;;;5059888;28;20421;-61
2023/05/14 02:53:53;;;;;;;23.67;18.33;;;;;;;;;;5063203;28;20411;-61
2023/05/14 02:56:21;;;;;;;23.42;20.25;;;;;;;;;;5061812;28;20537;-62
2023/05/14 02:58:48;;;;;;;21.50;19.25;;;;;;;;;;5061039;28;20454;-61
2023/05/14 03:01:15;;;;;;;20.48;17.95;;;;;;;;;;5059116;28;20769;-61
2023/05/14 03:03:42;;;;;;;22.20;19.80;;;;;;;;;;5060803;28;20419;-61
2023/05/14 03:06:10;;;;;;;22.00;19.37;;;;;;;;;;5061539;28;20473;-61
2023/05/14 03:08:37;;;;;;;23.75;20.63;;;;;;;;;;5062722;28;20959;-61
2023/05/14 03:11:05;;;;;;;27.55;20.90;;;;;;;;;;5061227;28;20481;-61
2023/05/14 03:13:32;;;;;;;23.33;20.80;;;;;;;;;;5058954;28;20428;-60
2023/05/14 03:15:59;;;;;;;23.63;20.63;;;;;;;;;;5061006;28;20415;-60
2023/05/14 03:18:29;;;;;;;21.08;18.73;;;;;;;;;;5061537;28;20469;-61
2023/05/14 03:20:56;;;;;;;22.00;19.70;;;;;;;;;;5060118;28;20928;-61
2023/05/14 03:23:24;;;;;;;23.40;20.63;;;;;;;;;;5059232;28;20487;-61
2023/05/14 03:25:51;;;;;;;23.05;20.48;;;;;;;;;;5060153;28;20416;-61
2023/05/14 03:28:18;;;;;;;24.60;20.52;;;;;;;;;;5059755;28;20460;-61
2023/05/14 03:30:45;;;;;;;23.58;20.60;;;;;;;;;;5059210;28;20420;-61
2023/05/14 03:33:12;;;;;;;22.70;19.90;;;;;;;;;;5060236;28;20416;-61
2023/05/14 03:35:39;;;;;;;24.27;19.90;;;;;;;;;;5058245;28;20413;-60
2023/05/14 03:38:06;;;;;;;22.88;20.10;;;;;;;;;;5065731;28;20491;-61
2023/05/14 03:40:35;;;;;;;24.80;20.50;;;;;;;;;;5059195;28;20475;-59
2023/05/14 03:43:02;;;;;;;28.38;22.70;;;;;;;;;;5050236;28;20463;-61
2023/05/14 03:45:29;;;;;;;26.90;23.33;;;;;;;;;;5057843;28;20527;-61
2023/05/14 03:47:56;;;;;;;25.90;21.55;;;;;;;;;;5061117;28;20415;-61
2023/05/14 03:50:24;;;;;;;24.15;21.52;;;;;;;;;;5059596;28;20467;-62
2023/05/14 03:52:51;;;;;;;22.48;20.17;;;;;;;;;;5058900;28;20417;-61
2023/05/14 03:55:18;;;;;;;22.15;19.25;;;;;;;;;;5061589;28;20473;-61
2023/05/14 03:57:46;;;;;;;22.30;19.80;;;;;;;;;;5060861;28;20416;-61
2023/05/14 04:00:14;;;;;;;22.70;18.42;;;;;;;;;;5058644;28;20424;-60
2023/05/14 04:02:41;;;;;;;20.80;18.33;;;;;;;;;;5060276;28;20421;-61
2023/05/14 04:05:08;;;;;;;20.60;18.47;;;;;;;;;;5058752;28;20467;-61
2023/05/14 04:07:35;;;;;;;20.33;17.60;;;;;;;;;;5063403;28;20407;-61
2023/05/14 04:10:02;;;;;;;19.70;16.52;;;;;;;;;;5061505;28;20908;-59
2023/05/14 04:12:29;;;;;;;19.05;16.60;;;;;;;;;;5058898;28;20816;-60
2023/05/14 04:14:58;;;;;;;17.77;15.98;;;;;;;;;;5064709;28;20515;-59
2023/05/14 04:17:25;;;;;;;18.92;17.02;;;;;;;;;;5062332;28;20413;-57
2023/05/14 04:19:52;;;;;;;17.92;16.08;;;;;;;;;;5065713;28;20937;-61
2023/05/14 04:22:19;;;;;;;20.20;16.20;;;;;;;;;;5065007;28;20529;-59
2023/05/14 04:24:46;;;;;;;17.25;15.32;;;;;;;;;;5064234;28;20420;-60
2023/05/14 04:27:14;;;;;;;17.90;15.90;;;;;;;;;;5064414;28;20479;-60
2023/05/14 04:29:41;;;;;;;16.40;14.80;;;;;;;;;;5064625;28;20433;-58
2023/05/14 04:32:11;;;;;;;16.58;14.90;;;;;;;;;;5062016;28;20818;-61
2023/05/14 04:34:38;;;;;;;17.25;15.07;;;;;;;;;;5061932;28;20419;-57
2023/05/14 04:37:05;;;;;;;18.43;13.80;;;;;;;;;;5066131;28;20416;-57
2023/05/14 04:39:32;;;;;;;17.48;13.82;;;;;;;;;;5065110;28;20417;-61
2023/05/14 04:41:59;;;;;;;15.40;13.50;;;;;;;;;;5063494;28;20480;-61
2023/05/14 04:44:26;;;;;;;14.70;13.18;;;;;;;;;;5063494;28;20422;-61
2023/05/14 04:46:54;;;;;;;15.27;12.50;;;;;;;;;;5064359;28;20415;-58
2023/05/14 04:49:22;;;;;;;18.33;12.77;;;;;;;;;;5063022;28;20429;-60
2023/05/14 04:51:49;;;;;;;18.13;12.40;;;;;;;;;;5061203;28;20469;-60
2023/05/14 04:54:16;;;;;;;13.48;12.07;;;;;;;;;;5061746;28;20905;-61
2023/05/14 04:56:43;;;;;;;12.70;10.90;;;;;;;;;;5065124;28;20469;-60
2023/05/14 04:59:10;;;;;;;12.18;10.88;;;;;;;;;;5058337;28;20461;-59
2023/05/14 05:01:37;;;;;;;11.55;10.38;;;;;;;;;;5062107;28;20475;-62
2023/05/14 05:04:04;;;;;;;10.80;9.70;;;;;;;;;;5063833;28;20498;-61
2023/05/14 05:06:33;;;;;;;10.93;9.80;;;;;;;;;;5064457;28;20416;-61
2023/05/14 05:09:00;;;;;;;10.97;9.83;;;;;;;;;;5068250;28;20479;-61
2023/05/14 05:11:26;;;;;;;13.57;11.43;;;;;;;;;;5062349;28;20422;-62
2023/05/14 05:13:53;;;;;;;13.60;12.13;;;;;;;;;;5067466;28;20485;-62
2023/05/14 05:16:20;;;;;;;14.10;12.05;;;;;;;;;;5064843;28;20807;-60
2023/05/14 05:18:47;;;;;;;13.23;11.82;;;;;;;;;;5062193;28;20483;-62
2023/05/14 05:21:15;;;;;;;13.35;12.05;;;;;;;;;;5061460;28;20413;-61
2023/05/14 05:23:43;;;;;;;14.65;12.45;;;;;;;;;;5059164;28;20954;-61
2023/05/14 05:26:10;;;;;;;12.65;11.18;;;;;;;;;;5063394;28;20461;-61
2023/05/14 05:28:37;;;;;;;14.40;12.88;;;;;;;;;;5053795;28;20483;-60
2023/05/14 05:31:04;;;;;;;14.20;12.75;;;;;;;;;;5061396;28;20947;-61
2023/05/14 05:33:31;;;;;;;15.43;13.02;;;;;;;;;;5063176;28;20819;-60
2023/05/14 05:35:58;;;;;;;16.63;12.30;;;;;;;;;;5061501;28;20417;-62
2023/05/14 05:38:25;;;;;;;15.32;13.10;;;;;;;;;;5069249;28;20470;-61
2023/05/14 05:40:53;;;;;;;17.15;12.82;;;;;;;;;;5060730;28;20974;-61
2023/05/14 05:43:21;;;;;;;14.27;12.77;;;;;;;;;;5064538;28;20423;-62
2023/05/14 05:45:48;;;;;;;13.60;12.20;;;;;;;;;;5064216;28;20425;-60
2023/05/14 05:48:15;;;;;;;14.40;12.90;;;;;;;;;;5061980;28;20757;-61
2023/05/14 05:50:43;;;;;;;13.73;12.20;;;;;;;;;;5062346;28;20433;-62
2023/05/14 05:53:11;;;;;;;12.50;10.85;;;;;;;;;;5061702;28;20453;-61
2023/05/14 05:55:38;;;;;;;12.57;10.93;;;;;;;;;;5064285;28;20461;-61
2023/05/14 05:58:06;;;;;;;12.32;10.13;;;;;;;;;;5060629;28;20417;-61
2023/05/14 06:00:33;;;;;;;11.60;10.27;;;;;;;;;;5061070;28;20476;-61
2023/05/14 06:03:00;;;;;;;10.45;9.45;;;;;;;;;;5062706;28;20443;-61
2023/05/14 06:05:28;;;;;;;11.40;8.93;;;;;;;;;;5059428;28;20420;-60
2023/05/14 06:07:55;;;;;;;9.02;8.13;;;;;;;;;;5064628;28;20417;-61
2023/05/14 06:10:22;;;;;;;9.02;8.02;;;;;;;;;;5058106;28;20429;-60
2023/05/14 06:12:49;;;;;;;8.77;7.60;;;;;;;;;;5060383;28;20474;-61
2023/05/14 06:15:17;;;;;;;8.25;7.45;;;;;;;;;;5065687;28;20851;-61
2023/05/14 06:17:44;;;;;;;8.77;7.88;;;;;;;;;;5061223;28;20419;-61
2023/05/14 06:20:12;;;;;;;8.50;7.00;;;;;;;;;;5059797;28;20785;-61
2023/05/14 06:22:39;;;;;;;9.60;6.75;;;;;;;;;;5061382;28;20419;-61
2023/05/14 06:25:06;;;;;;;9.32;6.57;;;;;;;;;;5062578;28;20473;-60
2023/05/14 06:27:33;;;;;;;7.30;5.97;;;;;;;;;;5061687;28;20937;-61
2023/05/14 06:30:00;;;;;;;8.20;7.00;;;;;;;;;;5061833;28;20468;-62
2023/05/14 06:32:29;;;;;;;6.85;5.90;;;;;;;;;;5059325;28;21061;-62
2023/05/14 06:34:56;;;;;;;6.60;6.00;;;;;;;;;;5060733;28;20419;-62
2023/05/14 06:37:23;;;;;;;7.10;6.00;;;;;;;;;;5064662;28;20419;-61
2023/05/14 06:39:49;;;;;;;8.03;5.80;;;;;;;;;;5063385;28;20425;-61
2023/05/14 06:42:17;;;;;;;5.65;4.90;;;;;;;;;;5059661;28;20417;-62
2023/05/14 06:44:44;;;;;;;5.95;5.20;;;;;;;;;;5061406;28;20474;-62
2023/05/14 06:47:11;;;;;;;8.40;6.05;;;;;;;;;;5063049;28;20481;-62
2023/05/14 06:49:39;;;;;;;9.15;5.55;;;;;;;;;;5059331;28;20429;-62
2023/05/14 06:52:06;;;;;;;6.95;5.45;;;;;;;;;;5061022;28;20480;-62
2023/05/14 06:54:33;;;;;;;7.07;5.28;;;;;;;;;;5061296;28;20515;-62
2023/05/14 06:57:00;;;;;;;8.95;6.25;;;;;;;;;;5061400;28;20449;-62
2023/05/14 06:59:27;;;;;;;6.60;5.90;;;;;;;;;;5062204;28;20836;-62
2023/05/14 07:01:54;;;;;;;7.07;5.33;;;;;;;;;;5062653;28;20487;-62
2023/05/14 07:04:21;;;;;;;5.47;4.97;;;;;;;;;;5060740;28;20419;-62
2023/05/14 07:06:50;;;;;;;8.83;5.27;;;;;;;;;;5062292;28;20417;-62
2023/05/14 07:09:17;;;;;;;6.22;5.40;;;;;;;;;;5063883;28;20521;-62
2023/05/14 07:11:43;;;;;;;5.95;5.25;;;;;;;;;;5061095;28;20818;-61
2023/05/14 07:14:10;;;;;;;6.78;5.47;;;;;;;;;;5077887;22;20448;-65
2023/05/14 07:16:37;;;;;;;5.55;4.60;;;;;;;;;;5070541;28;20415;-66
2023/05/14 07:19:04;;;;;;;6.05;5.05;;;;;;;;;;5067148;28;20421;-65
2023/05/14 07:21:31;;;;;;;8.60;5.18;;;;;;;;;;5070776;28;20814;-66
2023/05/14 07:24:00;;;;;;;7.35;5.45;;;;;;;;;;5067213;28;20451;-65
2023/05/14 07:26:27;;;;;;;11.20;5.15;;;;;;;;;;5054467;28;20395;-66
2023/05/14 07:28:54;;;;;;;6.40;4.40;;;;;;;;;;5057493;28;20407;-66
2023/05/14 07:31:21;;;;;;;6.43;4.30;;;;;;;;;;5059251;28;20445;-65
2023/05/14 07:33:48;;;;;;;6.43;4.50;;;;;;;;;;5061356;28;20423;-66
2023/05/14 07:36:15;;;;;;;5.93;4.53;;;;;;;;;;5058497;28;20830;-66
2023/05/14 07:38:42;;;;;;;6.77;4.20;;;;;;;;;;5058675;28;20419;-65
2023/05/14 07:41:11;;;;;;;4.82;3.90;;;;;;;;;;5061143;28;20729;-65
2023/05/14 07:43:39;;;;;;;6.13;3.88;;;;;;;;;;5061378;28;20443;-64
2023/05/14 07:46:06;;;;;;;4.60;3.40;;;;;;;;;;5060302;28;20428;-64
2023/05/14 07:48:33;;;;;;;5.05;3.20;;;;;;;;;;5059846;28;20467;-63
2023/05/14 07:51:00;;;;;;;4.53;4.13;;;;;;;;;;5065891;28;20423;-64
2023/05/14 07:53:27;;;;;;;4.57;3.60;;;;;;;;;;5065202;28;20499;-65
2023/05/14 07:55:54;;;;;;;5.65;3.80;;;;;;;;;;5071548;28;20418;-65
2023/05/14 07:58:23;;;;;;;4.40;3.83;;;;;;;;;;5064776;28;20419;-64
2023/05/14 08:00:50;;;;;;;6.13;4.18;;;;;;;;;;5062242;28;20424;-65
2023/05/14 08:03:17;;;;;;;5.47;4.38;;;;;;;;;;5063744;28;20411;-64
2023/05/14 08:05:44;;;;;;;5.60;4.10;;;;;;;;;;5061196;28;20474;-65
2023/05/14 08:08:12;;;;;;;5.60;3.30;;;;;;;;;;5063180;28;20409;-65
2023/05/14 08:10:39;;;;;;;5.78;3.55;;;;;;;;;;5062171;28;20863;-66
2023/05/14 08:13:06;;;;;;;5.28;3.92;;;;;;;;;;5058751;28;20406;-65
2023/05/14 08:15:34;;;;;;;3.92;3.53;;;;;;;;;;5062937;28;20470;-66
2023/05/14 08:18:02;;;;;;;5.20;3.80;;;;;;;;;;5064784;28;20822;-65
2023/05/14 08:20:29;;;;;;;3.88;3.55;;;;;;;;;;5063311;28;20819;-65
2023/05/14 08:22:56;;;;;;;5.57;3.47;;;;;;;;;;5062396;28;20432;-65
2023/05/14 08:25:23;;;;;;;4.45;3.20;;;;;;;;;;5063949;28;20787;-66
2023/05/14 08:27:52;;;;;;;3.30;2.90;;;;;;;;;;5064361;28;20411;-66
2023/05/14 08:30:19;;;;;;;3.65;2.60;;;;;;;;;;5057235;28;20434;-66
2023/05/14 08:32:47;;;;;;;3.60;3.30;;;;;;;;;;5063713;28;20911;-65
2023/05/14 08:35:14;;;;;;;4.07;3.03;;;;;;;;;;5061324;28;20469;-64
2023/05/14 08:37:41;;;;;;;3.17;2.60;;;;;;;;;;5059843;28;20419;-63
2023/05/14 08:40:09;;;;;;;2.83;2.45;;;;;;;;;;5060634;28;20424;-69
2023/05/14 08:42:39;;;;;;;4.68;2.78;;;;;;;;;;5065561;28;20415;-67
2023/05/14 08:45:09;;;;;;;6.13;3.88;;;;;;;;;;5062679;28;20496;-66
2023/05/14 08:47:36;;;;;;;5.45;3.33;;;;;;;;;;5060788;28;20461;-65
2023/05/14 08:50:05;;;;;;;3.35;2.17;;;;;;;;;;5063118;28;20432;-65
2023/05/14 08:52:32;;;;;;;2.83;2.10;;;;;;;;;;5053447;28;20432;-65
2023/05/14 08:55:00;;;;;;;2.80;2.50;;;;;;;;;;5062964;28;20420;-67
2023/05/14 08:57:29;;;;;;;3.25;2.25;;;;;;;;;;5061237;28;20417;-67
2023/05/14 08:59:57;;;;;;;2.35;2.15;;;;;;;;;;5060904;28;20447;-66
2023/05/14 09:02:25;;;;;;;3.45;2.25;;;;;;;;;;5062109;28;20428;-68
2023/05/14 09:04:55;;;;;;;3.67;2.83;;;;;;;;;;5064609;28;20487;-68
2023/05/14 09:07:24;;;;;;;3.30;2.30;;;;;;;;;;5061874;28;20411;-68
2023/05/14 09:09:51;;;;;;;2.50;2.30;;;;;;;;;;5062066;28;20460;-68
2023/05/14 09:12:18;;;;;;;3.97;3.00;;;;;;;;;;5060929;28;20448;-66
2023/05/14 09:14:46;;;;;;;4.60;2.90;;;;;;;;;;5061362;28;20421;-67
2023/05/14 09:17:13;;;;;;;2.90;2.70;;;;;;;;;;5062005;28;20413;-67
2023/05/14 09:19:40;;;;;;;3.07;2.60;;;;;;;;;;5062784;28;20419;-67
2023/05/14 09:22:09;;;;;;;5.78;2.72;;;;;;;;;;5059318;28;20479;-67
2023/05/14 09:24:38;;;;;;;3.65;2.85;;;;;;;;;;5061514;28;20476;-67
2023/05/14 09:27:06;;;;;;;3.28;2.85;;;;;;;;;;5064614;28;20413;-66
2023/05/14 09:29:33;;;;;;;3.28;2.85;;;;;;;;;;5065402;28;20428;-67
2023/05/14 09:32:04;;;;;;;3.30;2.77;;;;;;;;;;5062910;28;20491;-66
2023/05/14 09:34:31;;;;;;;4.70;3.00;;;;;;;;;;5063114;28;20502;-69
2023/05/14 09:36:59;;;;;;;4.63;3.60;;;;;;;;;;5055028;28;20429;-66
2023/05/14 09:39:26;;;;;;;3.45;2.92;;;;;;;;;;5059956;28;20967;-66
2023/05/14 09:41:55;;;;;;;5.00;3.70;;;;;;;;;;5062661;28;20415;-66
2023/05/14 09:44:23;;;;;;;3.65;3.08;;;;;;;;;;5062375;28;20744;-66
2023/05/14 09:46:50;;;;;;;3.38;3.08;;;;;;;;;;5061803;28;20473;-68
2023/05/14 09:49:17;;;;;;;4.18;3.28;;;;;;;;;;5061313;28;20500;-67
2023/05/14 09:51:44;;;;;;;3.47;2.73;;;;;;;;;;5060338;28;20421;-67
2023/05/14 09:54:12;;;;;;;5.03;2.67;;;;;;;;;;5060392;28;20405;-69
2023/05/14 09:56:39;;;;;;;4.13;2.90;;;;;;;;;;5060831;28;21192;-66
2023/05/14 09:59:08;;;;;;;3.85;2.95;;;;;;;;;;5061423;28;20423;-64
2023/05/14 10:01:35;;;;;;;3.17;2.88;;;;;;;;;;5062416;28;20941;-64
2023/05/14 10:04:03;;;;;;;4.15;2.70;;;;;;;;;;5060882;28;20477;-64
2023/05/14 10:06:31;;;;;;;3.60;2.80;;;;;;;;;;5061998;28;20408;-63
2023/05/14 10:09:04;;;;;;;3.25;2.50;;;;;;;;;;5058228;28;20426;-63
2023/05/14 10:11:32;;;;;;;4.53;2.65;;;;;;;;;;5062414;28;20431;-64
2023/05/14 10:14:02;;;;;;;4.00;2.80;;;;;;;;;;5062610;28;20492;-63
2023/05/14 10:16:33;;;;;;;3.67;2.85;;;;;;;;;;5061544;28;20953;-63
2023/05/14 10:19:01;;;;;;;4.47;2.80;;;;;;;;;;5062084;28;20425;-62
2023/05/14 10:21:31;;;;;;;2.88;2.60;;;;;;;;;;5058301;28;20435;-63
2023/05/14 10:23:59;;;;;;;2.85;2.42;;;;;;;;;;5059346;28;20417;-63
2023/05/14 10:26:26;;;;;;;4.72;2.83;;;;;;;;;;5059388;28;20417;-63
2023/05/14 10:28:54;;;;;;;3.88;2.95;;;;;;;;;;5059423;28;21087;-63
2023/05/14 10:31:23;;;;;;;4.50;2.67;;;;;;;;;;5056225;28;20931;-65
2023/05/14 10:33:53;;;;;;;4.97;3.50;;;;;;;;;;5059392;28;20427;-66
2023/05/14 10:36:21;;;;;;;3.00;2.40;;;;;;;;;;5056852;28;20435;-64
2023/05/14 10:38:55;;;;;;;3.63;2.55;;;;;;;;;;5059809;28;20421;-63
2023/05/14 10:41:22;;;;;;;5.00;2.75;;;;;;;;;;5057113;28;20475;-63
2023/05/14 10:43:49;;;;;;;3.10;2.80;;;;;;;;;;5061955;28;20422;-66
2023/05/14 10:46:16;;;;;;;3.30;3.00;;;;;;;;;;5056265;28;20413;-64
2023/05/14 10:48:44;;;;;;;5.40;3.57;;;;;;;;;;5060095;28;20425;-65
2023/05/14 10:51:12;;;;;;;3.50;2.90;;;;;;;;;;5061553;28;20423;-65
2023/05/14 10:53:40;;;;;;;3.83;2.90;;;;;;;;;;5061553;28;20411;-64
2023/05/14 10:56:08;;;;;;;4.13;2.83;;;;;;;;;;5061741;28;20457;-65
2023/05/14 10:58:36;;;;;;;3.92;2.80;;;;;;;;;;5058083;28;20492;-66
2023/05/14 11:01:04;;;;;;;2.90;2.60;;;;;;;;;;5061962;28;20403;-64
2023/05/14 11:03:32;;;;;;;4.07;3.22;;;;;;;;;;5056335;28;20881;-63
2023/05/14 11:06:00;;;;;;;3.60;2.80;;;;;;;;;;5057171;28;20420;-63
2023/05/14 11:08:29;;;;;;;4.78;4.00;;;;;;;;;;5057934;28;20437;-63
2023/05/14 11:10:56;;;;;;;4.70;3.53;;;;;;;;;;5050922;28;20748;-63
2023/05/14 11:13:23;;;;;;;3.60;3.00;;;;;;;;;;5058004;28;20417;-62
2023/05/14 11:15:51;;;;;;;4.22;3.20;;;;;;;;;;5058113;28;20485;-63
2023/05/14 11:18:27;;;;;;;5.38;3.22;;;;;;;;;;5061674;28;20428;-62
2023/05/14 11:20:54;;;;;;;4.22;3.33;;;;;;;;;;5059630;28;20413;-66
2023/05/14 11:23:23;;;;;;;3.77;2.90;;;;;;;;;;5065310;28;20415;-68
2023/05/14 11:25:52;;;;;;;4.30;3.88;;;;;;;;;;5065221;28;20787;-68
2023/05/14 11:28:20;;;;;;;5.63;3.70;;;;;;;;;;5065212;28;20439;-65
2023/05/14 11:30:47;;;;;;;6.60;4.10;;;;;;;;;;5063494;28;20541;-65
2023/05/14 11:33:14;;;;;;;9.07;5.88;;;;;;;;;;5062761;28;20420;-65
2023/05/14 11:35:44;;;;;;;6.30;4.43;;;;;;;;;;5064941;28;20478;-65
2023/05/14 11:38:14;;;;;;;9.40;6.88;;;;;;;;;;5061296;28;20424;-65
2023/05/14 11:40:41;;;;;;;4.88;3.13;;;;;;;;;;5058771;28;20461;-65
2023/05/14 11:43:09;;;;;;;4.63;3.30;;;;;;;;;;5064337;28;20415;-65
2023/05/14 11:45:36;;;;;;;3.47;3.08;;;;;;;;;;5062689;28;20429;-66
2023/05/14 11:48:13;;;;;;;3.97;3.60;;;;;;;;;;5063388;28;20407;-65
2023/05/14 11:50:40;;;;;;;7.80;4.85;;;;;;;;;;5059526;28;20455;-65
2023/05/14 11:53:07;;;;;;;3.50;2.90;;;;;;;;;;5063078;28;20421;-65
2023/05/14 11:55:35;;;;;;;5.95;3.83;;;;;;;;;;5064416;28;20421;-65
2023/05/14 11:58:02;;;;;;;3.90;2.97;;;;;;;;;;5063754;28;20457;-65
2023/05/14 12:00:32;;;;;;;7.07;5.72;;;;;;;;;;5062739;28;20785;-64
2023/05/14 12:03:00;;;;;;;5.32;2.80;;;;;;;;;;5062519;28;20467;-64
2023/05/14 12:05:26;;;;;;;5.85;4.10;;;;;;;;;;5061829;28;20973;-63
2023/05/14 12:07:54;;;;;;;4.27;3.27;;;;;;;;;;5061115;28;20570;-63
2023/05/14 12:10:22;;;;;;;3.67;3.20;;;;;;;;;;5061044;28;20838;-65
2023/05/14 12:12:49;;;;;;;17.15;12.32;;;;;;;;;;5062121;28;20421;-65
2023/05/14 12:15:17;;;;;;;4.90;3.75;;;;;;;;;;5064878;28;20427;-65
2023/05/14 12:17:50;;;;;;;10.10;6.45;;;;;;;;;;5064097;28;20909;-65
2023/05/14 12:20:17;;;;;;;5.13;3.13;;;;;;;;;;5062191;28;20910;-65
2023/05/14 12:22:44;;;;;;;4.93;3.20;;;;;;;;;;5061062;28;20420;-65
2023/05/14 12:25:13;;;;;;;3.70;3.10;;;;;;;;;;5060171;28;20483;-65
2023/05/14 12:27:40;;;;;;;5.28;3.10;;;;;;;;;;5064252;28;20426;-66
2023/05/14 12:30:08;;;;;;;3.42;2.60;;;;;;;;;;5060893;28;20975;-66
2023/05/14 12:32:35;;;;;;;3.80;2.70;;;;;;;;;;5063274;28;20461;-65
2023/05/14 12:35:04;;;;;;;3.50;2.67;;;;;;;;;;5057147;28;20809;-64
2023/05/14 12:37:31;;;;;;;4.95;2.80;;;;;;;;;;5063084;28;20421;-64
2023/05/14 12:39:58;;;;;;;4.25;2.95;;;;;;;;;;5054759;28;20428;-65
2023/05/14 12:42:25;;;;;;;3.47;2.70;;;;;;;;;;5061309;28;20412;-65
2023/05/14 12:44:52;;;;;;;3.70;2.60;;;;;;;;;;5064418;28;20422;-64
2023/05/14 12:47:19;;;;;;;3.58;2.50;;;;;;;;;;5059992;28;20943;-65
2023/05/14 12:49:46;;;;;;;3.60;2.70;;;;;;;;;;5063541;28;20415;-65
2023/05/14 12:52:15;;;;;;;4.05;3.13;;;;;;;;;;5061078;28;20436;-64
2023/05/14 12:54:42;;;;;;;3.40;2.50;;;;;;;;;;5061855;28;20452;-65
2023/05/14 12:57:09;;;;;;;6.80;4.87;;;;;;;;;;5063702;28;20932;-65
2023/05/14 12:59:36;;;;;;;4.20;2.60;;;;;;;;;;5060592;28;20415;-65
2023/05/14 13:02:03;;;;;;;3.05;2.58;;;;;;;;;;5063199;28;20453;-64
2023/05/14 13:04:30;;;;;;;2.53;2.10;;;;;;;;;;5057935;28;20409;-64
2023/05/14 13:06:57;;;;;;;2.75;2.20;;;;;;;;;;5061930;28;20417;-65
2023/05/14 13:09:26;;;;;;;3.25;2.55;;;;;;;;;;5060104;28;20437;-64
2023/05/14 13:11:53;;;;;;;2.40;2.20;;;;;;;;;;5059641;28;20428;-64
2023/05/14 13:14:20;;;;;;;3.35;2.30;;;;;;;;;;5063111;28;20412;-65
2023/05/14 13:16:47;;;;;;;4.75;2.20;;;;;;;;;;5061695;28;20471;-64
2023/05/14 13:19:14;;;;;;;2.75;2.03;;;;;;;;;;5060950;28;20409;-66
2023/05/14 13:21:41;;;;;;;4.22;3.47;;;;;;;;;;5063175;28;20411;-65
2023/05/14 13:24:09;;;;;;;6.38;4.25;;;;;;;;;;5062536;28;20429;-66
2023/05/14 13:26:43;;;;;;;4.07;2.72;;;;;;;;;;5064035;28;20468;-65
2023/05/14 13:29:10;;;;;;;3.08;2.42;;;;;;;;;;5062569;28;20427;-64
2023/05/14 13:31:37;;;;;;;3.20;2.63;;;;;;;;;;5060592;28;20431;-65
2023/05/14 13:34:04;;;;;;;2.88;2.00;;;;;;;;;;5061857;28;20818;-65
2023/05/14 13:36:31;;;;;;;4.60;2.00;;;;;;;;;;5055854;28;20420;-64
2023/05/14 13:38:59;;;;;;;2.97;1.90;;;;;;;;;;5065716;28;20418;-65
2023/05/14 13:41:26;;;;;;;2.40;1.70;;;;;;;;;;5077178;28;20727;-65
2023/05/14 13:43:54;;;;;;;3.00;1.60;;;;;;;;;;5070190;28;20421;-65
2023/05/14 13:46:21;;;;;;;3.55;1.70;;;;;;;;;;5061208;28;20444;-65
2023/05/14 13:48:48;;;;;;;2.42;1.77;;;;;;;;;;5062360;28;20525;-66
2023/05/14 13:51:15;;;;;;;2.15;1.75;;;;;;;;;;5060594;28;20429;-65
2023/05/14 13:53:42;;;;;;;2.50;1.58;;;;;;;;;;5059626;28;20413;-65
2023/05/14 13:56:09;;;;;;;3.10;1.77;;;;;;;;;;5056216;28;20413;-65
2023/05/14 13:58:36;;;;;;;3.30;1.98;;;;;;;;;;5060869;28;20417;-65
2023/05/14 14:01:04;;;;;;;2.50;1.70;;;;;;;;;;5062362;28;20427;-65
2023/05/14 14:03:31;;;;;;;2.42;1.60;;;;;;;;;;5060144;28;20428;-66
2023/05/14 14:05:58;;;;;;;3.90;2.28;;;;;;;;;;5062494;28;20415;-66
2023/05/14 14:08:25;;;;;;;3.55;2.38;;;;;;;;;;5061056;28;20471;-69
2023/05/14 14:10:54;;;;;;;3.97;2.25;;;;;;;;;;5055982;28;20889;-67
2023/05/14 14:13:21;;;;;;;3.80;1.90;;;;;;;;;;5060210;28;20483;-67
2023/05/14 14:15:48;;;;;;;2.70;1.90;;;;;;;;;;5060151;28;20477;-68
2023/05/14 14:18:17;;;;;;;2.38;1.70;;;;;;;;;;5056941;28;20413;-67
2023/05/14 14:20:44;;;;;;;2.30;1.95;;;;;;;;;;5058179;28;20420;-67
2023/05/14 14:23:11;;;;;;;1.67;1.52;;;;;;;;;;5053076;28;20436;-67
2023/05/14 14:25:38;;;;;;;2.10;1.90;;;;;;;;;;5054847;28;20895;-67
2023/05/14 14:28:05;;;;;;;1.80;1.63;;;;;;;;;;5053047;28;20428;-67
2023/05/14 14:30:33;;;;;;;;;;;;;;;;;;5059816;28;20627;-67
2023/05/14 14:33:00;;;;;;;;;;;;;;;;;;5060803;28;19974;-68
2023/05/14 14:35:27;;;;;;;;;;;;;;;;;;5060330;28;20049;-68